Time;durP1;ratioP1;P1;durP2;ratioP2;P2;SDS_P1;SDS_P2;PMS_P1;PMS_P2;Temp;Humidity;BMP_temperature;BMP_pressure;BME280_temperature;BME280_humidity;BME280_pressure;Samples;Min_cycle;Max_cycle;Signal;HPM_P1;HPM_P2
2022/03/26 00:00:25;;;;;;;30.13;20.10;;;;;;;8.83;54.63;102339.63;4946834;28;20036;-69
2022/03/26 00:02:51;;;;;;;31.27;20.85;;;;;;;8.85;54.63;102345.66;4965783;28;20018;-69
2022/03/26 00:05:16;;;;;;;31.55;22.23;;;;;;;8.83;54.49;102340.44;4963267;28;20054;-71
2022/03/26 00:07:42;;;;;;;31.33;21.33;;;;;;;8.78;55.10;102345.13;4981885;28;20014;-71
2022/03/26 00:10:08;;;;;;;30.40;21.02;;;;;;;8.76;55.38;102341.72;4965079;28;20788;-71
2022/03/26 00:12:34;;;;;;;27.67;20.70;;;;;;;8.73;55.65;102349.81;4954231;28;20045;-71
2022/03/26 00:14:59;;;;;;;32.50;21.40;;;;;;;8.71;55.15;102351.69;4968664;28;21031;-70
2022/03/26 00:17:25;;;;;;;29.55;21.02;;;;;;;8.87;54.95;102343.75;4985241;28;20213;-71
2022/03/26 00:19:51;;;;;;;30.23;21.33;;;;;;;8.53;56.05;102345.63;4964798;28;20060;-70
2022/03/26 00:22:17;;;;;;;28.63;21.55;;;;;;;8.34;56.43;102351.03;4955704;28;20018;-70
2022/03/26 00:24:42;;;;;;;32.88;21.40;;;;;;;8.16;56.70;102343.16;4956936;28;20018;-71
2022/03/26 00:27:07;;;;;;;37.80;23.15;;;;;;;8.07;56.92;102341.84;4986426;28;20259;-71
2022/03/26 00:29:33;;;;;;;33.13;22.38;;;;;;;8.03;57.36;102337.69;4988851;28;20164;-71
2022/03/26 00:31:58;;;;;;;34.13;21.63;;;;;;;7.91;58.37;102343.63;4986583;28;20492;-70
2022/03/26 00:34:23;;;;;;;32.13;22.02;;;;;;;8.07;57.68;102338.38;4986298;28;20227;-70
2022/03/26 00:36:49;;;;;;;31.02;21.40;;;;;;;8.06;57.84;102341.94;4970628;28;20006;-70
2022/03/26 00:39:14;;;;;;;28.38;20.95;;;;;;;8.06;57.86;102337.50;5007694;28;20091;-71
2022/03/26 00:41:39;;;;;;;28.98;20.38;;;;;;;8.08;57.58;102348.00;4986848;28;20022;-70
2022/03/26 00:44:05;;;;;;;29.27;21.05;;;;;;;7.91;58.04;102341.81;4991590;28;20201;-70
2022/03/26 00:46:30;;;;;;;29.70;21.17;;;;;;;8.05;57.60;102348.13;4970975;28;20029;-71
2022/03/26 00:48:59;;;;;;;29.63;21.30;;;;;;;7.89;57.33;102341.03;4996115;28;20014;-70
2022/03/26 00:51:25;;;;;;;30.25;20.52;;;;;;;7.79;57.53;102339.81;4995453;28;20790;-71
2022/03/26 00:53:50;;;;;;;28.48;19.92;;;;;;;7.86;57.19;102346.47;5008476;28;20010;-70
2022/03/26 00:56:16;;;;;;;30.02;20.83;;;;;;;7.77;57.31;102339.06;4980442;28;20212;-71
2022/03/26 00:58:41;;;;;;;31.02;20.77;;;;;;;7.71;57.37;102334.97;4958124;28;20037;-71
2022/03/26 01:01:10;;;;;;;28.60;20.48;;;;;;;7.63;57.61;102341.53;4974566;28;20021;-71
2022/03/26 01:03:36;;;;;;;32.38;21.60;;;;;;;7.39;58.02;102331.31;4973240;28;20042;-70
2022/03/26 01:06:03;;;;;;;33.83;22.10;;;;;;;7.45;58.32;102335.44;4942531;28;20009;-70
2022/03/26 01:08:28;;;;;;;35.13;20.80;;;;;;;7.48;57.76;102330.84;4977123;28;20014;-70
2022/03/26 01:10:53;;;;;;;29.63;20.52;;;;;;;7.35;58.58;102335.03;4954637;28;20227;-70
2022/03/26 01:13:19;;;;;;;35.17;21.60;;;;;;;7.46;58.22;102339.75;4972904;28;20621;-70
2022/03/26 01:15:44;;;;;;;30.45;21.45;;;;;;;7.35;58.41;102335.03;4938395;28;20022;-71
2022/03/26 01:18:10;;;;;;;32.13;21.08;;;;;;;7.33;58.25;102331.59;4956700;28;20378;-70
2022/03/26 01:20:35;;;;;;;30.23;20.58;;;;;;;7.29;58.60;102324.78;4960679;28;20018;-70
2022/03/26 01:23:01;;;;;;;35.92;21.05;;;;;;;7.13;58.70;102325.53;4954184;28;20121;-71
2022/03/26 01:25:26;;;;;;;30.35;21.15;;;;;;;7.10;59.04;102332.75;4974763;28;20471;-70
2022/03/26 01:27:51;;;;;;;31.70;20.58;;;;;;;7.01;58.82;102326.16;4935472;28;20230;-70
2022/03/26 01:30:17;;;;;;;31.48;20.75;;;;;;;7.15;58.86;102322.81;4941780;28;20022;-70
2022/03/26 01:32:46;;;;;;;26.65;19.52;;;;;;;7.14;58.72;102331.69;4971742;28;20029;-71
2022/03/26 01:35:12;;;;;;;28.67;19.85;;;;;;;6.99;59.32;102333.25;4971512;28;20060;-70
2022/03/26 01:37:37;;;;;;;30.42;19.67;;;;;;;6.87;59.84;102324.19;4956122;28;20029;-69
2022/03/26 01:40:04;;;;;;;29.60;20.25;;;;;;;6.95;59.82;102336.97;4958428;28;20091;-70
2022/03/26 01:42:30;;;;;;;31.15;20.27;;;;;;;6.94;59.59;102335.25;4955720;28;20531;-69
2022/03/26 01:44:55;;;;;;;27.80;19.42;;;;;;;6.86;59.83;102323.31;4958783;28;20710;-69
2022/03/26 01:47:21;;;;;;;30.08;20.15;;;;;;;6.69;60.51;102328.53;4954505;28;20094;-69
2022/03/26 01:49:46;;;;;;;28.27;20.30;;;;;;;6.61;60.66;102328.03;4971855;28;20086;-70
2022/03/26 01:52:12;;;;;;;32.17;20.08;;;;;;;6.72;60.53;102325.75;4966285;28;20026;-69
2022/03/26 01:54:38;;;;;;;32.80;21.10;;;;;;;6.73;60.43;102319.59;4966578;28;20931;-69
2022/03/26 01:57:04;;;;;;;36.15;21.48;;;;;;;6.53;60.76;102321.38;4947577;28;20003;-69
2022/03/26 01:59:29;;;;;;;32.05;20.02;;;;;;;6.60;61.16;102313.19;4937684;28;20022;-69
2022/03/26 02:01:55;;;;;;;28.38;19.52;;;;;;;6.65;60.65;102316.47;4935177;28;20011;-69
2022/03/26 02:04:20;;;;;;;30.00;20.05;;;;;;;6.55;61.12;102309.94;4946707;28;20756;-70
2022/03/26 02:06:46;;;;;;;27.55;20.10;;;;;;;6.52;61.09;102314.41;4958616;28;20513;-69
2022/03/26 02:09:13;;;;;;;31.05;20.33;;;;;;;6.33;61.50;102308.28;4942436;28;20034;-69
2022/03/26 02:11:40;;;;;;;29.95;20.17;;;;;;;6.21;62.50;102308.88;4970048;28;20545;-69
2022/03/26 02:14:08;;;;;;;36.60;19.55;;;;;;;6.39;61.80;102308.03;4937897;28;20972;-69
2022/03/26 02:16:33;;;;;;;33.15;20.77;;;;;;;6.24;62.23;102313.97;4953385;28;20050;-71
2022/03/26 02:18:59;;;;;;;29.25;20.40;;;;;;;6.14;62.54;102327.53;4956698;28;20117;-69
2022/03/26 02:21:24;;;;;;;29.85;19.52;;;;;;;5.91;63.56;102328.53;4953183;28;20003;-69
2022/03/26 02:23:50;;;;;;;29.30;19.90;;;;;;;5.89;63.64;102330.34;4950509;28;20010;-69
2022/03/26 02:26:16;;;;;;;28.83;20.58;;;;;;;5.93;63.43;102331.06;4960514;28;20017;-69
2022/03/26 02:28:45;;;;;;;38.85;21.25;;;;;;;5.83;63.84;102331.47;4994794;28;20022;-69
2022/03/26 02:31:12;;;;;;;30.23;21.13;;;;;;;5.90;63.30;102326.81;4971596;28;20092;-69
2022/03/26 02:33:37;;;;;;;31.50;22.20;;;;;;;5.75;63.50;102328.31;4975666;28;20025;-71
2022/03/26 02:36:03;;;;;;;32.53;22.60;;;;;;;5.69;64.02;102328.59;4959477;28;20175;-69
2022/03/26 02:38:28;;;;;;;30.50;21.67;;;;;;;5.65;64.10;102327.00;4957195;28;20018;-70
2022/03/26 02:40:54;;;;;;;33.00;22.80;;;;;;;5.72;63.77;102332.88;4939256;28;20767;-69
2022/03/26 02:43:19;;;;;;;35.60;23.15;;;;;;;5.56;64.03;102330.88;4994295;28;20007;-69
2022/03/26 02:45:45;;;;;;;35.35;22.88;;;;;;;5.51;63.84;102338.09;4941027;28;20015;-69
2022/03/26 02:48:12;;;;;;;33.33;21.63;;;;;;;5.53;64.52;102332.78;4966299;28;20014;-69
2022/03/26 02:50:41;;;;;;;30.88;21.95;;;;;;;5.51;64.22;102330.22;4983982;28;20810;-69
2022/03/26 02:53:07;;;;;;;32.60;22.25;;;;;;;5.47;64.61;102340.00;4976465;28;20922;-69
2022/03/26 02:55:32;;;;;;;31.05;21.52;;;;;;;5.42;64.51;102331.47;4958061;28;20010;-69
2022/03/26 02:57:58;;;;;;;30.45;22.50;;;;;;;5.50;64.37;102331.16;4983051;28;20162;-69
2022/03/26 03:00:23;;;;;;;32.85;22.08;;;;;;;5.46;64.00;102333.03;4940906;28;20003;-69
2022/03/26 03:02:49;;;;;;;30.90;21.50;;;;;;;5.56;64.24;102337.94;4942453;28;20099;-69
2022/03/26 03:05:14;;;;;;;31.85;20.92;;;;;;;5.37;64.79;102335.19;4976889;28;20065;-69
2022/03/26 03:07:40;;;;;;;36.13;21.85;;;;;;;5.48;64.59;102341.69;4961416;28;20009;-69
2022/03/26 03:10:06;;;;;;;33.67;22.35;;;;;;;5.75;63.26;102333.56;4963804;28;20014;-69
2022/03/26 03:12:31;;;;;;;30.55;21.90;;;;;;;5.68;63.72;102332.13;4964456;28;20212;-69
2022/03/26 03:14:57;;;;;;;34.63;22.17;;;;;;;5.46;63.78;102333.03;4965751;28;20022;-70
2022/03/26 03:17:22;;;;;;;36.38;21.98;;;;;;;5.41;63.95;102336.78;4997326;28;20014;-69
2022/03/26 03:19:47;;;;;;;33.40;22.33;;;;;;;5.25;64.43;102331.31;4966683;28;20013;-69
2022/03/26 03:22:13;;;;;;;33.13;22.08;;;;;;;5.24;64.84;102326.97;4982208;28;20440;-69
2022/03/26 03:24:38;;;;;;;32.85;22.50;;;;;;;5.15;65.29;102328.22;4994528;28;20010;-69
2022/03/26 03:27:04;;;;;;;34.58;21.98;;;;;;;5.09;65.98;102328.44;4980416;28;20013;-69
2022/03/26 03:29:30;;;;;;;34.22;22.20;;;;;;;5.06;65.86;102323.31;4990318;28;20056;-69
2022/03/26 03:31:56;;;;;;;33.60;22.95;;;;;;;5.23;65.58;102323.50;4990580;28;20857;-70
2022/03/26 03:34:21;;;;;;;35.05;21.95;;;;;;;5.23;65.33;102327.88;4985936;28;20084;-69
2022/03/26 03:36:46;;;;;;;31.88;22.20;;;;;;;5.09;65.77;102329.31;5005118;28;20020;-69
2022/03/26 03:39:12;;;;;;;30.33;21.52;;;;;;;5.04;66.05;102331.25;4985872;28;20018;-69
2022/03/26 03:41:38;;;;;;;31.60;20.98;;;;;;;4.98;66.09;102331.53;4986767;28;20202;-70
2022/03/26 03:44:04;;;;;;;32.85;21.55;;;;;;;4.92;66.15;102332.63;5024755;28;20091;-69
2022/03/26 03:46:30;;;;;;;37.50;22.08;;;;;;;4.93;66.32;102336.09;4982717;28;20125;-69
2022/03/26 03:48:56;;;;;;;33.70;21.42;;;;;;;4.89;66.54;102331.88;4995242;28;20024;-69
2022/03/26 03:51:21;;;;;;;33.30;22.10;;;;;;;4.75;66.93;102324.53;4969267;28;20414;-69
2022/03/26 03:53:46;;;;;;;29.33;20.75;;;;;;;4.67;67.17;102332.72;4987784;28;20014;-73
2022/03/26 03:56:12;;;;;;;30.92;21.52;;;;;;;4.63;67.55;102333.75;4972675;28;20174;-69
2022/03/26 03:58:37;;;;;;;34.85;20.65;;;;;;;4.61;67.42;102328.56;4988736;28;20096;-71
2022/03/26 04:01:03;;;;;;;35.03;21.92;;;;;;;4.68;67.21;102334.41;4957561;28;20527;-69
2022/03/26 04:03:28;;;;;;;30.92;21.40;;;;;;;4.63;67.83;102333.75;4994114;28;20067;-69
2022/03/26 04:05:54;;;;;;;33.75;21.25;;;;;;;4.77;66.90;102338.47;5006370;28;20032;-69
2022/03/26 04:08:20;;;;;;;32.30;21.60;;;;;;;4.65;67.79;102339.78;4980090;28;20028;-69
2022/03/26 04:10:45;;;;;;;33.95;21.30;;;;;;;4.81;66.89;102329.56;5001213;28;20992;-70
2022/03/26 04:13:11;;;;;;;30.42;20.63;;;;;;;4.80;66.91;102335.72;4959423;28;20025;-69
2022/03/26 04:15:36;;;;;;;30.55;21.30;;;;;;;4.76;66.60;102339.38;4958264;28;20207;-69
2022/03/26 04:18:01;;;;;;;36.30;22.33;;;;;;;4.58;66.95;102341.81;4958153;28;20078;-69
2022/03/26 04:20:27;;;;;;;31.02;22.13;;;;;;;4.48;67.52;102343.03;4984363;28;20005;-69
2022/03/26 04:22:52;;;;;;;37.00;22.58;;;;;;;4.49;67.34;102349.16;4961029;28;20460;-69
2022/03/26 04:25:17;;;;;;;31.17;21.38;;;;;;;4.49;67.72;102344.75;4990377;28;20362;-69
2022/03/26 04:27:43;;;;;;;33.97;22.92;;;;;;;4.53;67.40;102348.97;4976545;28;20010;-69
2022/03/26 04:30:10;;;;;;;33.25;22.77;;;;;;;4.53;67.92;102345.50;4960606;28;20955;-70
2022/03/26 04:32:35;;;;;;;40.10;23.02;;;;;;;4.40;68.07;102347.72;4958906;28;20042;-69
2022/03/26 04:35:00;;;;;;;33.92;21.95;;;;;;;4.73;67.33;102357.84;4974443;28;20014;-69
2022/03/26 04:37:26;;;;;;;31.48;21.63;;;;;;;4.81;66.47;102355.78;4958097;28;20030;-69
2022/03/26 04:39:51;;;;;;;32.97;22.08;;;;;;;4.44;67.46;102351.94;4993623;28;20895;-69
2022/03/26 04:42:16;;;;;;;31.90;21.77;;;;;;;4.43;67.61;102350.25;4955759;28;20179;-69
2022/03/26 04:44:42;;;;;;;32.65;22.88;;;;;;;4.37;68.04;102356.56;4959441;28;20026;-69
2022/03/26 04:47:07;;;;;;;32.67;21.05;;;;;;;4.28;68.49;102352.50;4976056;28;20079;-69
2022/03/26 04:49:33;;;;;;;32.40;22.17;;;;;;;4.27;68.23;102361.28;4998871;28;20032;-69
2022/03/26 04:51:58;;;;;;;36.10;21.65;;;;;;;4.22;68.77;102349.25;4990694;28;20776;-69
2022/03/26 04:54:23;;;;;;;35.17;22.05;;;;;;;4.12;68.66;102349.59;4958573;28;20536;-69
2022/03/26 04:56:49;;;;;;;37.17;22.70;;;;;;;4.13;68.98;102346.06;4962111;28;20009;-69
2022/03/26 04:59:14;;;;;;;35.88;22.60;;;;;;;4.04;69.24;102351.63;4970561;28;20042;-69
2022/03/26 05:01:44;;;;;;;34.83;23.17;;;;;;;4.02;69.65;102358.69;4970210;28;20027;-69
2022/03/26 05:04:09;;;;;;;31.83;22.27;;;;;;;3.95;69.49;102355.44;4971409;28;20034;-69
2022/03/26 05:06:35;;;;;;;35.78;23.05;;;;;;;3.89;69.82;102360.00;4952950;28;20026;-69
2022/03/26 05:09:00;;;;;;;35.83;23.83;;;;;;;3.89;69.88;102355.66;4975827;28;20014;-69
2022/03/26 05:11:25;;;;;;;35.30;23.30;;;;;;;3.77;69.92;102358.69;4954248;28;20113;-69
2022/03/26 05:13:51;;;;;;;35.72;24.85;;;;;;;3.73;70.21;102362.31;4956072;28;20797;-69
2022/03/26 05:16:16;;;;;;;35.58;23.65;;;;;;;3.69;70.45;102369.41;4958494;28;20021;-69
2022/03/26 05:18:42;;;;;;;36.28;24.40;;;;;;;3.76;70.55;102370.91;4976579;28;20017;-69
2022/03/26 05:21:08;;;;;;;40.13;24.95;;;;;;;3.70;70.56;102371.13;4963411;28;20022;-69
2022/03/26 05:23:33;;;;;;;38.08;25.30;;;;;;;3.73;70.58;102373.63;4974728;28;20030;-70
2022/03/26 05:25:59;;;;;;;34.80;23.85;;;;;;;3.71;70.25;102367.63;4967383;28;21015;-69
2022/03/26 05:28:25;;;;;;;36.40;23.73;;;;;;;3.64;70.41;102370.47;4970436;28;20769;-69
2022/03/26 05:30:50;;;;;;;35.67;23.92;;;;;;;3.63;71.20;102374.84;4975194;28;20025;-72
2022/03/26 05:33:16;;;;;;;35.33;24.10;;;;;;;3.66;71.35;102380.00;4991524;28;20019;-72
2022/03/26 05:35:41;;;;;;;35.35;24.13;;;;;;;3.66;71.62;102384.38;4980869;28;20023;-71
2022/03/26 05:38:06;;;;;;;35.35;23.70;;;;;;;3.64;71.58;102386.19;4998779;28;20013;-71
2022/03/26 05:40:32;;;;;;;34.85;23.75;;;;;;;3.58;71.96;102379.38;4992851;28;20449;-71
2022/03/26 05:42:58;;;;;;;31.85;22.63;;;;;;;3.65;72.21;102393.13;4977817;28;20949;-70
2022/03/26 05:45:24;;;;;;;35.17;21.80;;;;;;;3.92;71.14;102396.56;4975868;28;20018;-70
2022/03/26 05:47:50;;;;;;;35.15;22.48;;;;;;;3.84;71.55;102393.38;4963805;28;20013;-70
2022/03/26 05:50:15;;;;;;;33.55;21.95;;;;;;;3.78;71.37;102397.91;4981393;28;20003;-70
2022/03/26 05:52:41;;;;;;;35.00;22.60;;;;;;;3.77;71.56;102400.59;4974941;28;20069;-71
2022/03/26 05:55:06;;;;;;;34.15;22.83;;;;;;;3.85;71.29;102402.94;4962141;28;21006;-71
2022/03/26 05:57:33;;;;;;;35.47;23.63;;;;;;;3.88;71.25;102401.06;4968938;28;20033;-70
2022/03/26 05:59:58;;;;;;;32.40;22.42;;;;;;;3.99;71.00;102408.56;4961738;28;20434;-69
2022/03/26 06:02:24;;;;;;;34.35;22.20;;;;;;;3.96;71.03;102413.91;4995447;28;20014;-72
2022/03/26 06:04:49;;;;;;;35.20;23.27;;;;;;;3.96;71.29;102411.28;4969081;28;20033;-72
2022/03/26 06:07:15;;;;;;;31.50;22.83;;;;;;;4.13;70.58;102413.31;4928480;28;20884;-72
2022/03/26 06:09:40;;;;;;;38.65;22.52;;;;;;;4.08;70.64;102416.09;4942261;28;20029;-72
2022/03/26 06:12:06;;;;;;;34.17;22.70;;;;;;;4.08;71.05;102421.34;4955462;28;20042;-72
2022/03/26 06:14:32;;;;;;;32.42;21.95;;;;;;;4.15;70.54;102421.97;4942270;28;20013;-72
2022/03/26 06:16:57;;;;;;;32.42;22.67;;;;;;;4.15;70.70;102421.13;4956480;28;20435;-72
2022/03/26 06:19:23;;;;;;;30.35;21.73;;;;;;;4.11;71.42;102420.38;4973094;28;20921;-72
2022/03/26 06:21:48;;;;;;;32.55;22.08;;;;;;;4.24;70.99;102428.66;4969058;28;20014;-73
2022/03/26 06:24:14;;;;;;;33.00;22.75;;;;;;;4.40;70.53;102424.59;4972778;28;20014;-74
2022/03/26 06:26:41;;;;;;;34.33;22.65;;;;;;;4.42;70.46;102429.78;4952194;28;20016;-74
2022/03/26 06:29:06;;;;;;;32.55;21.58;;;;;;;4.51;70.40;102433.81;4943375;28;20179;-74
2022/03/26 06:31:32;;;;;;;33.17;22.17;;;;;;;4.64;69.85;102432.47;4958384;28;20068;-73
2022/03/26 06:33:58;;;;;;;32.15;22.58;;;;;;;4.67;70.19;102432.38;4943623;28;20061;-72
2022/03/26 06:36:24;;;;;;;31.10;21.98;;;;;;;4.77;69.64;102428.47;4959722;28;20041;-72
2022/03/26 06:38:49;;;;;;;33.38;21.48;;;;;;;4.95;69.44;102431.31;4959558;28;20006;-72
2022/03/26 06:41:15;;;;;;;34.05;22.50;;;;;;;5.14;68.85;102441.97;4943278;28;20014;-73
2022/03/26 06:43:41;;;;;;;30.27;20.70;;;;;;;5.31;68.17;102433.44;4953244;28;20014;-72
2022/03/26 06:46:06;;;;;;;32.10;21.63;;;;;;;5.42;67.84;102431.22;4965964;28;20868;-72
2022/03/26 06:48:32;;;;;;;30.88;21.75;;;;;;;5.40;67.91;102438.31;4962975;28;20030;-72
2022/03/26 06:51:00;;;;;;;31.42;22.40;;;;;;;5.50;68.33;102434.41;4941100;28;20039;-73
2022/03/26 06:53:25;;;;;;;32.85;23.15;;;;;;;5.59;68.21;102432.31;4947057;28;20168;-73
2022/03/26 06:55:50;;;;;;;34.47;22.67;;;;;;;5.75;67.69;102433.38;4964250;28;20022;-72
2022/03/26 06:58:16;;;;;;;36.47;23.00;;;;;;;5.88;67.97;102435.50;4931104;28;20206;-72
2022/03/26 07:00:41;;;;;;;32.30;21.90;;;;;;;6.05;67.63;102434.81;4949668;28;20018;-72
2022/03/26 07:03:06;;;;;;;32.63;22.63;;;;;;;6.12;66.68;102439.78;4948364;28;20017;-72
2022/03/26 07:05:32;;;;;;;30.83;23.10;;;;;;;6.37;66.57;102441.31;4952417;28;20034;-72
2022/03/26 07:07:57;;;;;;;35.03;22.42;;;;;;;6.40;66.36;102441.19;4966930;28;20023;-73
2022/03/26 07:10:23;;;;;;;29.58;22.25;;;;;;;6.56;66.19;102449.25;4951922;28;20711;-72
2022/03/26 07:12:48;;;;;;;34.03;23.58;;;;;;;6.66;65.24;102453.19;4976124;28;20044;-73
2022/03/26 07:15:14;;;;;;;33.58;23.63;;;;;;;6.83;64.43;102451.56;5009600;28;20037;-73
2022/03/26 07:17:41;;;;;;;28.85;22.23;;;;;;;7.02;64.06;102448.91;4988357;28;20914;-73
2022/03/26 07:20:06;;;;;;;37.80;23.50;;;;;;;7.13;64.07;102451.91;4975790;28;20431;-72
2022/03/26 07:22:32;;;;;;;32.58;22.83;;;;;;;7.33;63.29;102452.75;4953412;28;20010;-72
2022/03/26 07:24:57;;;;;;;37.28;22.98;;;;;;;7.46;61.31;102459.13;4936706;28;20576;-72
2022/03/26 07:27:23;;;;;;;33.50;22.45;;;;;;;7.67;60.45;102465.16;4973941;28;20915;-73
2022/03/26 07:29:48;;;;;;;34.45;23.05;;;;;;;7.87;60.43;102465.94;4973286;28;20022;-72
2022/03/26 07:32:14;;;;;;;37.42;24.05;;;;;;;7.92;59.22;102463.91;4954212;28;20053;-72
2022/03/26 07:34:39;;;;;;;32.58;22.48;;;;;;;8.12;59.17;102462.91;4956727;28;20216;-72
2022/03/26 07:37:04;;;;;;;33.85;23.13;;;;;;;8.23;58.55;102465.88;4958815;28;20508;-73
2022/03/26 07:39:30;;;;;;;32.92;22.85;;;;;;;8.36;57.73;102466.09;4956308;28;20325;-73
2022/03/26 07:41:55;;;;;;;31.92;22.33;;;;;;;8.48;57.79;102459.34;4970421;28;20014;-72
2022/03/26 07:44:21;;;;;;;34.95;22.25;;;;;;;8.62;57.08;102463.03;4955222;28;20056;-73
2022/03/26 07:46:46;;;;;;;31.48;22.15;;;;;;;8.80;56.54;102464.69;4976150;28;20021;-73
2022/03/26 07:49:11;;;;;;;35.17;23.08;;;;;;;8.76;55.89;102465.78;4965524;28;20731;-72
2022/03/26 07:51:37;;;;;;;37.83;23.60;;;;;;;8.84;56.16;102466.22;4945777;28;20030;-71
2022/03/26 07:54:02;;;;;;;31.98;22.65;;;;;;;8.86;56.09;102460.88;4966386;28;20087;-72
2022/03/26 07:56:28;;;;;;;29.90;18.23;;;;;;;9.16;57.94;102466.25;4961416;28;20884;-69
2022/03/26 07:58:54;;;;;;;33.85;23.58;;;;;;;9.34;55.25;102468.81;4937731;28;20010;-70
2022/03/26 08:01:19;;;;;;;36.78;23.40;;;;;;;9.55;54.19;102472.03;4982076;28;20404;-70
2022/03/26 08:03:44;;;;;;;32.38;23.67;;;;;;;9.72;53.78;102468.41;4975530;28;20049;-71
2022/03/26 08:06:10;;;;;;;34.40;24.60;;;;;;;9.79;53.72;102470.59;4963853;28;20430;-73
2022/03/26 08:08:36;;;;;;;35.20;23.13;;;;;;;9.96;53.69;102466.13;4928240;28;20057;-72
2022/03/26 08:11:02;;;;;;;31.48;23.23;;;;;;;10.00;52.61;102461.50;4952566;28;20470;-73
2022/03/26 08:13:27;;;;;;;36.92;23.50;;;;;;;10.10;52.43;102468.81;4945310;28;20031;-71
2022/03/26 08:15:53;;;;;;;32.63;23.25;;;;;;;10.25;51.81;102471.47;4934674;28;20015;-72
2022/03/26 08:18:18;;;;;;;35.83;22.85;;;;;;;10.26;51.22;102466.09;4935109;28;20037;-72
2022/03/26 08:20:44;;;;;;;32.83;22.98;;;;;;;10.44;50.60;102471.25;4952571;28;20247;-73
2022/03/26 08:23:10;;;;;;;32.88;22.85;;;;;;;10.55;50.50;102463.50;4922951;28;20019;-72
2022/03/26 08:28:19;;;;;;;40.83;23.38;;;;;;;10.85;50.15;102454.59;4958083;28;20045;-72
2022/03/26 08:30:44;;;;;;;36.15;23.25;;;;;;;11.10;50.19;102463.66;4954297;28;20901;-72
2022/03/26 08:33:10;;;;;;;37.45;22.55;;;;;;;11.24;49.13;102465.41;4958259;28;20241;-72
2022/03/26 08:35:39;;;;;;;33.55;22.58;;;;;;;11.41;48.71;102467.84;4954572;28;20040;-72
2022/03/26 08:38:04;;;;;;;35.20;22.48;;;;;;;11.52;48.44;102467.16;4937271;28;20133;-72
2022/03/26 08:40:29;;;;;;;30.65;22.73;;;;;;;11.69;48.86;102472.16;4959724;28;20014;-73
2022/03/26 08:42:56;;;;;;;36.15;23.98;;;;;;;11.70;47.47;102478.31;4955093;28;20026;-72
2022/03/26 08:45:22;;;;;;;35.65;22.80;;;;;;;11.94;47.64;102473.19;4937363;28;20025;-72
2022/03/26 08:47:47;;;;;;;32.55;24.45;;;;;;;12.24;47.08;102480.06;4972117;28;20061;-71
2022/03/26 08:50:13;;;;;;;40.20;25.30;;;;;;;12.47;46.63;102483.78;4937592;28;20014;-71
2022/03/26 08:52:38;;;;;;;33.20;23.15;;;;;;;12.67;46.17;102473.56;4966245;28;20408;-72
2022/03/26 08:55:04;;;;;;;34.30;24.60;;;;;;;12.87;46.14;102469.50;4941180;28;20030;-72
2022/03/26 08:57:30;;;;;;;30.40;22.77;;;;;;;13.13;45.19;102470.28;4957061;28;20425;-73
2022/03/26 08:59:55;;;;;;;35.45;23.80;;;;;;;13.29;45.86;102471.84;4976168;28;20014;-73
2022/03/26 09:02:21;;;;;;;38.72;23.92;;;;;;;13.67;44.94;102469.03;4975910;28;20028;-74
2022/03/26 09:04:46;;;;;;;33.15;23.98;;;;;;;13.90;43.69;102469.09;4940274;28;20043;-73
2022/03/26 09:07:12;;;;;;;32.25;23.45;;;;;;;14.25;43.12;102471.72;4954102;28;21028;-72
2022/03/26 09:09:37;;;;;;;33.33;24.17;;;;;;;14.35;42.25;102471.03;4939449;28;20119;-73
2022/03/26 09:12:03;;;;;;;37.17;24.45;;;;;;;14.50;41.91;102471.66;4939780;28;20034;-74
2022/03/26 09:14:28;;;;;;;40.95;24.63;;;;;;;14.72;43.41;102463.72;4942184;28;20203;-73
2022/03/26 09:16:54;;;;;;;35.40;23.15;;;;;;;15.11;43.92;102457.94;4958209;28;20987;-73
2022/03/26 09:19:19;;;;;;;40.65;24.80;;;;;;;15.48;40.67;102467.44;4942423;28;20022;-73
2022/03/26 09:21:46;;;;;;;33.38;24.52;;;;;;;15.64;40.48;102473.19;4949345;28;20010;-72
2022/03/26 09:24:13;;;;;;;32.05;23.77;;;;;;;16.24;39.66;102476.16;4962021;28;20713;-71
2022/03/26 09:26:39;;;;;;;37.13;24.58;;;;;;;16.76;39.91;102468.13;4949683;28;20015;-72
2022/03/26 09:29:04;;;;;;;36.78;24.52;;;;;;;17.10;38.16;102465.13;4958561;28;20017;-73
2022/03/26 09:31:30;;;;;;;39.78;25.00;;;;;;;17.15;37.86;102472.78;4949183;28;20041;-74
2022/03/26 09:33:55;;;;;;;38.95;24.92;;;;;;;17.31;37.17;102465.03;4977782;28;20026;-73
2022/03/26 09:36:21;;;;;;;36.70;24.10;;;;;;;17.56;36.44;102459.31;4961544;28;20348;-73
2022/03/26 09:38:46;;;;;;;34.03;24.35;;;;;;;17.98;37.33;102462.53;4981834;28;20090;-73
2022/03/26 09:41:11;;;;;;;35.95;23.48;;;;;;;18.83;36.39;102464.38;4945843;28;20021;-73
2022/03/26 09:43:37;;;;;;;34.80;23.85;;;;;;;19.20;33.79;102456.25;4949015;28;20030;-74
2022/03/26 09:46:03;;;;;;;34.25;23.70;;;;;;;19.12;34.45;102458.88;4951042;28;20174;-73
2022/03/26 09:48:28;;;;;;;30.13;22.95;;;;;;;19.30;33.73;102463.38;4937572;28;20018;-75
2022/03/26 09:50:53;;;;;;;33.75;22.55;;;;;;;19.84;32.70;102461.56;4966144;28;20447;-74
2022/03/26 09:53:20;;;;;;;28.83;22.48;;;;;;;20.30;31.68;102466.72;4964383;28;20416;-73
2022/03/26 09:55:45;;;;;;;32.00;21.70;;;;;;;20.57;31.17;102457.66;4966042;28;20923;-74
2022/03/26 09:58:12;;;;;;;35.63;23.00;;;;;;;20.86;31.73;102447.53;4965757;28;20026;-74
2022/03/26 10:00:38;;;;;;;31.92;23.63;;;;;;;20.71;31.25;102463.44;4965165;28;20061;-73
2022/03/26 10:03:03;;;;;;;37.17;23.73;;;;;;;20.97;31.27;102457.13;4961992;28;20140;-73
2022/03/26 10:05:32;;;;;;;28.92;22.73;;;;;;;20.85;30.64;102451.22;4955592;28;20846;-73
2022/03/26 10:07:58;;;;;;;33.55;23.17;;;;;;;20.91;30.37;102448.72;4949003;28;20062;-73
2022/03/26 10:10:24;;;;;;;30.40;22.30;;;;;;;21.07;31.58;102449.78;4981954;28;20060;-73
2022/03/26 10:12:53;;;;;;;32.08;20.50;;;;;;;21.78;29.19;102445.63;4953585;28;20039;-73
2022/03/26 10:15:18;;;;;;;30.25;21.63;;;;;;;21.92;28.66;102438.72;4957070;28;20228;-75
2022/03/26 10:17:43;;;;;;;28.70;21.65;;;;;;;22.17;29.02;102449.47;4952455;28;20030;-74
2022/03/26 10:20:12;;;;;;;28.17;21.40;;;;;;;22.29;28.17;102448.09;4966409;28;20036;-74
2022/03/26 10:22:45;;;;;;;36.15;22.50;;;;;;;22.40;28.67;102443.34;4972457;28;20049;-74
2022/03/26 10:25:18;;;;;;;29.80;21.75;;;;;;;22.60;28.40;102438.38;4977984;28;20014;-73
2022/03/26 10:27:51;;;;;;;30.38;22.15;;;;;;;22.72;28.28;102444.25;4964596;28;20554;-74
2022/03/26 10:30:18;;;;;;;32.15;22.63;;;;;;;23.02;27.41;102441.72;4925843;28;20026;-74
2022/03/26 10:32:49;;;;;;;34.97;22.98;;;;;;;23.50;29.47;102437.00;4952485;28;20103;-75
2022/03/26 10:35:22;;;;;;;36.17;24.38;;;;;;;23.08;28.02;102435.59;4937362;28;20015;-73
2022/03/26 10:37:56;;;;;;;34.53;24.23;;;;;;;23.05;28.01;102430.56;4949269;28;20031;-73
2022/03/26 10:40:29;;;;;;;34.97;24.30;;;;;;;23.64;28.18;102428.09;4953693;28;20015;-73
2022/03/26 10:43:15;;;;;;;32.63;24.00;;;;;;;23.83;28.02;102423.19;4983073;28;20945;-74
2022/03/26 10:45:50;;;;;;;29.15;22.88;;;;;;;24.45;27.20;102423.88;4969705;28;20323;-74
2022/03/26 10:48:15;;;;;;;26.38;21.00;;;;;;;24.86;26.18;102415.22;4949102;28;20042;-74
2022/03/26 10:50:41;;;;;;;27.95;22.38;;;;;;;25.06;25.63;102415.47;4988833;28;20446;-74
2022/03/26 10:53:11;;;;;;;30.42;23.42;;;;;;;25.65;25.48;102411.66;4966495;28;20022;-74
2022/03/26 10:55:39;;;;;;;37.47;22.10;;;;;;;25.31;24.47;102415.94;4965708;28;20029;-75
2022/03/26 10:58:05;;;;;;;28.10;22.67;;;;;;;25.29;25.32;102411.72;4952009;28;20010;-75
2022/03/26 11:00:31;;;;;;;31.90;23.27;;;;;;;25.08;24.71;102409.84;4953431;28;20284;-74
2022/03/26 11:02:56;;;;;;;31.25;23.02;;;;;;;25.21;25.16;102407.25;4977876;28;20080;-74
2022/03/26 11:05:22;;;;;;;32.88;23.00;;;;;;;25.25;24.67;102400.44;4991152;28;20089;-75
2022/03/26 11:07:48;;;;;;;28.13;22.52;;;;;;;25.53;24.24;102395.06;4984787;28;20137;-74
2022/03/26 11:10:13;;;;;;;31.23;21.52;;;;;;;25.26;24.54;102396.69;4977815;28;20135;-75